createdAt,value
2019-05-25T14:51:29.630Z,2.72
2019-05-25T14:54:02.204Z,3.63
2019-05-25T14:56:34.782Z,2.53
2019-05-25T14:59:07.827Z,4.30
2019-05-25T15:01:43.664Z,3.17
2019-05-25T15:04:17.000Z,5.77
2019-05-25T15:06:52.080Z,4.73
2019-05-25T15:09:24.628Z,4.73
2019-05-25T15:12:01.730Z,4.25
2019-05-25T15:14:37.945Z,3.77
2019-05-25T15:17:10.590Z,3.33
2019-05-25T15:19:44.457Z,3.65
2019-05-25T15:22:22.917Z,5.83
2019-05-25T15:24:57.512Z,4.13
2019-05-25T15:27:30.465Z,3.77
2019-05-25T15:30:06.599Z,3.07
2019-05-25T15:32:41.158Z,3.57
2019-05-25T15:35:14.832Z,2.70
2019-05-25T15:37:47.949Z,2.73
2019-05-25T15:40:20.580Z,3.20
2019-05-25T15:42:54.371Z,3.20
2019-05-25T15:45:28.433Z,2.77
2019-05-25T15:48:00.917Z,3.50
2019-05-25T15:50:35.764Z,4.10
2019-05-25T15:53:08.332Z,2.80
2019-05-25T15:55:41.761Z,2.77
2019-05-25T15:58:14.519Z,2.93
2019-05-25T16:00:50.327Z,3.43
2019-05-25T16:03:22.977Z,5.63
2019-05-25T16:05:56.545Z,3.87
2019-05-25T16:08:29.641Z,2.53
2019-05-25T16:11:04.006Z,2.63
2019-05-25T16:13:37.269Z,3.80
2019-05-25T16:16:11.741Z,4.63
2019-05-25T16:18:45.582Z,5.17
2019-05-25T16:21:18.514Z,4.03
2019-05-25T16:23:53.661Z,2.80
2019-05-25T16:26:28.077Z,4.20
2019-05-25T16:29:01.166Z,4.63
2019-05-25T16:31:34.532Z,3.93
2019-05-25T16:34:11.690Z,4.57
2019-05-25T16:36:48.297Z,3.53
2019-05-25T16:39:23.991Z,3.00
2019-05-25T16:41:58.488Z,2.23
2019-05-25T16:44:34.747Z,3.93
2019-05-25T16:47:09.097Z,3.13
2019-05-25T16:49:42.233Z,4.13
2019-05-25T16:52:15.012Z,3.60
2019-05-25T16:54:48.706Z,2.73
2019-05-25T16:57:22.356Z,3.23
2019-05-25T16:59:56.996Z,4.50
2019-05-25T17:02:30.302Z,5.37
2019-05-25T17:05:02.838Z,5.33
2019-05-25T17:07:36.523Z,24.27
2019-05-25T17:10:09.072Z,189.33
2019-05-25T17:12:42.664Z,206.93
2019-05-25T17:15:17.966Z,163.07
2019-05-25T17:17:51.703Z,83.87
2019-05-25T17:20:26.006Z,63.60
2019-05-25T17:22:59.130Z,35.10
2019-05-25T17:25:33.102Z,25.77
2019-05-25T17:28:06.753Z,17.77
2019-05-25T17:30:44.291Z,15.97
2019-05-25T17:33:16.969Z,10.00
2019-05-25T17:35:49.584Z,9.43
2019-05-25T17:38:23.171Z,4.70
2019-05-25T17:41:08.892Z,4.93
2019-05-25T17:43:45.359Z,4.17
2019-05-25T17:46:19.361Z,5.07
2019-05-25T17:48:53.895Z,5.40
2019-05-25T17:51:28.572Z,3.03
2019-05-25T17:54:12.608Z,4.57
2019-05-25T17:56:47.385Z,2.10
2019-05-25T17:59:21.763Z,2.47
2019-05-25T18:01:55.933Z,3.23
2019-05-25T18:04:29.356Z,2.87
2019-05-25T18:07:06.632Z,2.40
2019-05-25T18:09:40.767Z,3.70
2019-05-25T18:12:13.476Z,1.50
2019-05-25T18:14:47.475Z,2.00
2019-05-25T18:17:21.533Z,2.13
2019-05-25T18:19:56.996Z,2.90
2019-05-25T18:22:31.399Z,2.27
2019-05-25T18:25:12.322Z,1.90
2019-05-25T18:27:44.874Z,3.23
2019-05-25T18:30:17.367Z,2.97
2019-05-25T18:32:51.342Z,2.10
2019-05-25T18:35:25.023Z,3.37
2019-05-25T18:37:59.368Z,3.17
2019-05-25T18:40:37.404Z,3.00
2019-05-25T18:43:16.592Z,2.50
2019-05-25T18:45:51.796Z,2.00
2019-05-25T18:48:24.426Z,3.43
2019-05-25T18:50:58.133Z,2.60
2019-05-25T18:53:31.624Z,2.67
2019-05-25T18:56:04.356Z,1.70
2019-05-25T18:58:36.956Z,1.75
2019-05-25T19:01:10.309Z,2.53
2019-05-25T19:03:42.940Z,2.93
2019-05-25T19:06:16.450Z,3.73
2019-05-25T19:08:52.402Z,3.70
2019-05-25T19:11:25.095Z,4.47
2019-05-25T19:14:00.210Z,3.63
2019-05-25T19:16:32.808Z,2.67
2019-05-25T19:19:05.988Z,3.90
2019-05-25T19:21:38.516Z,3.17
2019-05-25T19:24:10.893Z,2.83
2019-05-25T19:26:45.249Z,3.33
2019-05-25T19:29:19.860Z,4.30
2019-05-25T19:31:54.967Z,2.37
2019-05-25T19:34:31.604Z,3.37
2019-05-25T19:37:05.272Z,3.60
2019-05-25T19:39:38.685Z,3.10
2019-05-25T19:42:12.815Z,2.37
2019-05-25T19:44:48.366Z,2.53
2019-05-25T19:47:21.466Z,3.03
2019-05-25T19:49:54.881Z,2.80
2019-05-25T19:52:28.313Z,3.10
2019-05-25T19:55:03.263Z,3.40
2019-05-25T19:57:36.483Z,3.37
2019-05-25T20:00:08.369Z,2.90
2019-05-25T20:02:40.775Z,3.53
2019-05-25T20:05:17.785Z,2.58
2019-05-25T20:07:52.380Z,2.43
2019-05-25T20:10:28.202Z,3.03
2019-05-25T20:13:00.801Z,3.33
2019-05-25T20:15:46.571Z,3.53
2019-05-25T20:18:28.621Z,3.90
2019-05-25T20:21:08.191Z,2.60
2019-05-25T20:23:43.449Z,4.57
2019-05-25T20:26:18.472Z,5.13
2019-05-25T20:28:51.132Z,5.40
2019-05-25T20:31:27.597Z,4.97
2019-05-25T20:34:01.541Z,3.35
2019-05-25T20:36:34.608Z,3.03
2019-05-25T20:39:08.499Z,2.90
2019-05-25T20:41:42.017Z,60.33
2019-05-25T20:44:16.332Z,9.10
2019-05-25T20:46:49.527Z,4.77
2019-05-25T20:49:23.097Z,3.83
2019-05-25T20:51:56.663Z,3.27
2019-05-25T20:54:29.446Z,3.40
2019-05-25T20:57:02.098Z,3.12
2019-05-25T20:59:35.123Z,3.53
2019-05-25T21:02:07.704Z,2.70
2019-05-25T21:04:42.682Z,3.07
2019-05-25T21:07:38.907Z,5.57
2019-05-25T21:10:12.310Z,2.83
2019-05-25T21:12:44.880Z,2.80
2019-05-25T21:15:21.888Z,3.10
2019-05-25T21:17:54.830Z,2.65
2019-05-25T21:20:29.328Z,2.87
2019-05-25T21:23:03.735Z,2.45
2019-05-25T21:25:38.642Z,3.53
2019-05-25T21:28:13.388Z,3.17
2019-05-25T21:30:47.135Z,4.80
2019-05-25T21:33:19.512Z,2.10
2019-05-25T21:36:07.006Z,3.27
2019-05-25T21:38:42.763Z,2.58
2019-05-25T21:41:18.503Z,4.00
2019-05-25T21:43:52.197Z,3.20
2019-05-25T21:46:24.738Z,4.37
2019-05-25T21:48:58.479Z,3.00
2019-05-25T21:51:33.069Z,4.33
2019-05-25T21:54:07.259Z,3.23
2019-05-25T21:56:41.737Z,5.00
2019-05-25T21:59:16.258Z,2.50
2019-05-25T22:01:49.800Z,5.87
2019-05-25T22:04:23.447Z,2.40
2019-05-25T22:06:57.662Z,2.40
2019-05-25T22:09:30.305Z,5.73
2019-05-25T22:12:05.939Z,3.60
2019-05-25T22:14:42.068Z,3.10
2019-05-25T22:17:15.052Z,3.77
2019-05-25T22:19:47.490Z,3.73
2019-05-25T22:22:22.204Z,3.37
2019-05-25T22:24:55.757Z,3.73
2019-05-25T22:27:29.365Z,4.47
2019-05-25T22:30:05.310Z,5.13
2019-05-25T22:32:39.191Z,4.47
2019-05-25T22:35:11.699Z,3.77
2019-05-25T22:37:44.315Z,3.83
2019-05-25T22:40:21.551Z,2.97
2019-05-25T22:42:54.827Z,3.77
2019-05-25T22:45:27.336Z,2.53
2019-05-25T22:47:59.951Z,4.90
2019-05-25T22:50:33.256Z,5.27
2019-05-25T22:53:05.884Z,4.63
2019-05-25T22:55:38.436Z,3.63
2019-05-25T22:58:12.501Z,3.73
2019-05-25T23:00:47.115Z,3.05
2019-05-25T23:03:19.639Z,4.63
2019-05-25T23:05:52.299Z,5.07
2019-05-25T23:08:25.862Z,3.58
2019-05-25T23:10:59.436Z,4.87
2019-05-25T23:13:32.516Z,4.77
2019-05-25T23:16:05.786Z,4.63
2019-05-25T23:18:38.970Z,4.37
2019-05-25T23:21:11.674Z,3.75
2019-05-25T23:23:44.421Z,5.03
2019-05-25T23:26:17.585Z,4.33
2019-05-25T23:28:51.401Z,4.87
2019-05-25T23:31:26.622Z,5.43
2019-05-25T23:34:00.657Z,4.83
2019-05-25T23:36:34.832Z,5.30
2019-05-25T23:39:09.647Z,5.53
2019-05-25T23:41:43.338Z,4.00
2019-05-25T23:44:15.923Z,3.90
2019-05-25T23:46:49.413Z,3.70
2019-05-25T23:49:22.043Z,4.67
2019-05-25T23:51:54.607Z,4.70
2019-05-25T23:54:27.247Z,4.97
2019-05-25T23:57:01.629Z,5.23
2019-05-25T23:59:35.101Z,5.47
